Brookhaven, MS

8:10 AM CDT on April 27, 2015 (GMT -0500)
Downtown (Perkins Bldg) | | Change Station
CLOSE
Current Station
Personal Weather Station
Location: Brookhaven, MS
Elevation: 473 ft
Nearby Weather Stations

Elev 473 ft 31.58 °N, 90.44 °W | Updated 2 minutes ago

Clear
Clear
61.7 °F
Feels Like 61.7 °F
N
0.0
Wind Variable Wind from NE

Today
High -- | Low -- °F
--% Chance of Precip.
Yesterday
High -- | Low -- °F
Precip. -- in
6:20 AM 7:38 PM
Waxing Gibbous, 65% visible
Pressure 29.75 in
Visibility 10.0 miles
Clouds Few 12000 ft
Dew Point 56 °F
Humidity 82%
Rainfall 0.00 in
Snow Depth Not available.
UV 0 out of 12
Pollen 8.70 out of 12
Air Quality Not available.
Flu Activity No Activity
METAR KMCB 271153Z AUTO 04008G14KT 10SM FEW120 18/16 A2976 RMK AO2 SLP073 T01780161 10206 20178 53006

More Conditions Fewer Conditions

Pressure 29.75 in
Visibility 10.0 miles
Clouds Few 12000 ft
Dew Point 56 °F
Humidity 82%
Rainfall 0.00 in
Snow Depth Not available.
UV 0 out of 12
Pollen 8.70 out of 12
Air Quality Not available.
Flu Activity No Activity
METAR KMCB 271153Z AUTO 04008G14KT 10SM FEW120 18/16 A2976 RMK AO2 SLP073 T01780161 10206 20178 53006

More Conditions Fewer Conditions

10-Day Weather Forecast

Almanac

Astronomy

Apr. 27, 2015 Rise Set
Actual Time
Civil Twilight
Nautical Twilight
Astronomical Twilight
Moon
Length of Visible Light
Length of Day
Tomorrow will be .
, % of the Moon is Illuminated

Today's Extremes

State Highs State Lows

Community

WunderPhotos

Upload Photos

1,817,305 photos uploaded!

WunderBlogs® & News

Nearby

Air Quality

  Air Quality AQ Index Pollutant
Not available.

Snow Depth

Station Depth Elevation

Earthquake Activity

City Distance Mag. Time & Date
Minimum magnitude displayed is 2.5.

Coastal Water Temperatures

Place Temperature

Stations

Nearby Weather Stations

Station Location Temp. Windchill Dew Point Humidity Wind Precip. Elev Updated Type